地図

経路データ

SID SEASON NUMBER BASIN SUBBASIN NAME ISO_TIME NATURE LAT LON WMO_WIND WMO_PRES WMO_AGENCY TRACK_TYPE DIST2LAND LANDFALL IFLAG USA_AGENCY USA_ATCF_ID USA_LAT USA_LON USA_RECORD USA_STATUS USA_WIND USA_PRES USA_SSHS USA_R34_NE USA_R34_SE USA_R34_SW USA_R34_NW USA_R50_NE USA_R50_SE USA_R50_SW USA_R50_NW USA_R64_NE USA_R64_SE USA_R64_SW USA_R64_NW USA_POCI USA_ROCI USA_RMW USA_EYE TOKYO_LAT TOKYO_LON TOKYO_GRADE TOKYO_WIND TOKYO_PRES TOKYO_R50_DIR TOKYO_R50_LONG TOKYO_R50_SHORT TOKYO_R30_DIR TOKYO_R30_LONG TOKYO_R30_SHORT TOKYO_LAND CMA_LAT CMA_LON CMA_CAT CMA_WIND CMA_PRES HKO_LAT HKO_LON HKO_CAT HKO_WIND HKO_PRES NEWDELHI_LAT NEWDELHI_LON NEWDELHI_GRADE NEWDELHI_WIND NEWDELHI_PRES NEWDELHI_CI NEWDELHI_DP NEWDELHI_POCI REUNION_LAT REUNION_LON REUNION_TYPE REUNION_WIND REUNION_PRES REUNION_TNUM REUNION_CI REUNION_RMW REUNION_R34_NE REUNION_R34_SE REUNION_R34_SW REUNION_R34_NW REUNION_R50_NE REUNION_R50_SE REUNION_R50_SW REUNION_R50_NW REUNION_R64_NE REUNION_R64_SE REUNION_R64_SW REUNION_R64_NW BOM_LAT BOM_LON BOM_TYPE BOM_WIND BOM_PRES BOM_TNUM BOM_CI BOM_RMW BOM_R34_NE BOM_R34_SE BOM_R34_SW BOM_R34_NW BOM_R50_NE BOM_R50_SE BOM_R50_SW BOM_R50_NW BOM_R64_NE BOM_R64_SE BOM_R64_SW BOM_R64_NW BOM_ROCI BOM_POCI BOM_EYE BOM_POS_METHOD BOM_PRES_METHOD NADI_LAT NADI_LON NADI_CAT NADI_WIND NADI_PRES WELLINGTON_LAT WELLINGTON_LON WELLINGTON_WIND WELLINGTON_PRES DS824_LAT DS824_LON DS824_STAGE DS824_WIND DS824_PRES TD9636_LAT TD9636_LON TD9636_STAGE TD9636_WIND TD9636_PRES TD9635_LAT TD9635_LON TD9635_WIND TD9635_PRES TD9635_ROCI NEUMANN_LAT NEUMANN_LON NEUMANN_CLASS NEUMANN_WIND NEUMANN_PRES MLC_LAT MLC_LON MLC_CLASS MLC_WIND MLC_PRES USA_GUST BOM_GUST BOM_GUST_PER REUNION_GUST REUNION_GUST_PER USA_SEAHGT USA_SEARAD_NE USA_SEARAD_SE USA_SEARAD_SW USA_SEARAD_NW STORM_SPEED STORM_DIR
1891254N20088 1891 31 NI BB NOT_NAMED 1891-09-11 00:00:00 TS 20.4000 88.4000 main 134 119 _________O____ -1 20.4000 88.4000 TC 30 5 276
1891254N20088 1891 31 NI BB NOT_NAMED 1891-09-11 03:00:00 TS 20.4268 88.1250 main 119 86 _________PO___ -1 20.4403 87.9875 TC 30 20.4000 88.4000 1 6 278
1891254N20088 1891 31 NI BB NOT_NAMED 1891-09-11 06:00:00 TS 20.4852 87.7707 main 86 43 _________OP___ -1 20.5000 87.6000 TC 30 20.4631 88.0267 1 7 282
1891254N20088 1891 31 NI BB NOT_NAMED 1891-09-11 09:00:00 TS 20.5659 87.4225 main 43 15 _________PP___ -1 20.5923 87.2500 TC 30 20.5306 87.6526 1 7 285
1891254N20088 1891 31 NI BB NOT_NAMED 1891-09-11 12:00:00 TS 20.6539 87.0886 main 10 0 _________OP___ -1 20.7000 86.9000 TC 30 20.6078 87.2772 1 7 285
1891254N20088 1891 31 NI BB NOT_NAMED 1891-09-11 15:00:00 TS 20.7463 86.7000 main 0 0 _________PO___ -1 20.7925 86.4999 TC 30 20.7000 86.9000 1 8 285
1891254N20088 1891 31 NI BB NOT_NAMED 1891-09-11 18:00:00 TS 20.8552 86.3105 main 0 0 _________OP___ -1 20.9000 86.1000 TC 30 20.8104 86.5210 1 8 289
1891254N20088 1891 31 NI BB NOT_NAMED 1891-09-11 21:00:00 TS 20.9923 85.9425 main 0 0 _________PP___ -1 21.0499 85.7425 TC 30 20.9348 86.1425 1 7 292
1891254N20088 1891 31 NI BB NOT_NAMED 1891-09-12 00:00:00 TS 21.1334 85.5839 main 0 0 _________OP___ -1 21.2000 85.4000 TC 30 21.0667 85.7678 1 7 291
1891254N20088 1891 31 NI BB NOT_NAMED 1891-09-12 03:00:00 TS 21.2500 85.2249 main 0 0 _________PO___ -1 21.2999 85.0498 TC 30 21.2000 85.4000 1 7 289
1891254N20088 1891 31 NI BB NOT_NAMED 1891-09-12 06:00:00 TS 21.3604 84.8652 main 0 0 _________OP___ -1 21.4000 84.7000 TC 30 21.3208 85.0304 1 7 290
1891254N20088 1891 31 NI BB NOT_NAMED 1891-09-12 09:00:00 TS 21.4924 84.5061 main 0 0 _________PP___ -1 21.5425 84.3425 TC 30 21.4424 84.6698 1 7 293
1891254N20088 1891 31 NI BB NOT_NAMED 1891-09-12 12:00:00 TS 21.6339 84.1621 main 0 0 _________OP___ -1 21.7000 84.0000 TC 30 21.5677 84.3242 1 7 295
1891254N20088 1891 31 NI BB NOT_NAMED 1891-09-12 15:00:00 TS 21.7750 83.8425 main 0 0 _________PO___ -1 21.8499 83.6849 TC 30 21.7000 84.0000 1 6 296
1891254N20088 1891 31 NI BB NOT_NAMED 1891-09-12 18:00:00 TS 21.9111 83.5515 main 0 0 _________OP___ -1 22.0000 83.4000 TC 30 21.8222 83.7030 1 6 298
1891254N20088 1891 31 NI BB NOT_NAMED 1891-09-12 21:00:00 TS 22.0447 83.2920 main 0 0 _________PP___ -1 22.1348 83.1573 TC 30 21.9546 83.4268 1 6 301
1891254N20088 1891 31 NI BB NOT_NAMED 1891-09-13 00:00:00 TS 22.2049 83.0311 main 0 0 _________OP___ -1 22.3000 82.9000 TC 30 22.1097 83.1623 1 6 305
1891254N20088 1891 31 NI BB NOT_NAMED 1891-09-13 03:00:00 TS 22.4138 82.7213 main 0 0 _________PO___ -1 22.5276 82.5426 TC 30 22.3000 82.9000 1 7 308
1891254N20088 1891 31 NI BB NOT_NAMED 1891-09-13 06:00:00 TS 22.6615 82.3944 main 0 0 _________OP___ -1 22.8000 82.2000 TC 30 22.5230 82.5889 1 8 313
1891254N20088 1891 31 NI BB NOT_NAMED 1891-09-13 09:00:00 TS 22.9339 82.1191 main 0 0 _________PP___ -1 23.0849 81.9550 TC 30 22.7828 82.2832 1 7 322
1891254N20088 1891 31 NI BB NOT_NAMED 1891-09-13 12:00:00 TS 23.2381 81.9054 main 0 0 _________OP___ -1 23.4000 81.8000 TC 30 23.0762 82.0108 1 7 333
1891254N20088 1891 31 NI BB NOT_NAMED 1891-09-13 15:00:00 TS 23.5675 81.7637 main 0 0 _________PO___ -1 23.7350 81.7273 TC 30 23.4000 81.8000 1 7 345
1891254N20088 1891 31 NI BB NOT_NAMED 1891-09-13 18:00:00 TS 23.9473 81.6883 main 0 0 _________OP___ -1 24.1000 81.7000 TC 30 23.7947 81.6767 1 8 351
1891254N20088 1891 31 NI BB NOT_NAMED 1891-09-13 21:00:00 TS 24.3773 81.6297 main 0 0 _________PP___ -1 24.5450 81.6426 TC 30 24.2097 81.6168 1 8 354
1891254N20088 1891 31 NI BB NOT_NAMED 1891-09-14 00:00:00 TS 24.7474 81.5993 main 0 0 _________OP___ -1 24.9000 81.6000 TC 30 24.5948 81.5986 1 6 355
1891254N20088 1891 31 NI BB NOT_NAMED 1891-09-14 03:00:00 TS 24.9475 81.5962 main 0 0 _________PO___ -1 24.9950 81.5924 TC 30 24.9000 81.6000 1 3 0
1891254N20088 1891 31 NI BB NOT_NAMED 1891-09-14 06:00:00 TS 25.0306 81.5927 main 0 0 _________OP___ -1 25.0000 81.6000 TC 30 25.0612 81.5854 1 2 0
1891254N20088 1891 31 NI BB NOT_NAMED 1891-09-14 09:00:00 TS 25.1162 81.5924 main 0 0 _________PP___ -1 25.0925 81.6000 TC 30 25.1400 81.5848 1 2 9
1891254N20088 1891 31 NI BB NOT_NAMED 1891-09-14 12:00:00 TS 25.1869 81.5959 main 0 0 _________OP___ -1 25.2000 81.6000 TC 30 25.1737 81.5918 1 1 0
1891254N20088 1891 31 NI BB NOT_NAMED 1891-09-14 15:00:00 TS 25.2537 81.6000 main 0 0 _________PO___ -1 25.3075 81.6000 TC 30 25.2000 81.6000 1 1 0
1891254N20088 1891 31 NI BB NOT_NAMED 1891-09-14 18:00:00 TS 25.3136 81.6025 main 0 0 _________OP___ -1 25.4000 81.6000 TC 30 25.2488 81.6044 1 1 12
1891254N20088 1891 31 NI BB NOT_NAMED 1891-09-14 21:00:00 TS 25.3760 81.6030 main 0 0 _________PP___ -1 25.4600 81.6000 TC 30 25.3200 81.6051 1 1 352
1891254N20088 1891 31 NI BB NOT_NAMED 1891-09-15 00:00:00 TS 25.4375 81.6021 main 0 0 _________OP___ -1 25.5000 81.6000 TC 30 25.4063 81.6032 1 1 352
1891254N20088 1891 31 NI BB NOT_NAMED 1891-09-15 03:00:00 NR 25.5000 81.6000 main 0 __________O___ -1 TC 25.5000 81.6000 1 1 0

IBTrACS Databaseについて

本データベースは、米国NOAAが公開する1842年以降の世界の熱帯低気圧のベストトラックデータアーカイブInternational Best Track Archive for Climate Stewardship (IBTrACS)を、ウェブで閲覧しやすい形式に変換したものです。

最終更新日:2021-11-26